Time;durP1;ratioP1;P1;durP2;ratioP2;P2;SDS_P1;SDS_P2;PMS_P1;PMS_P2;Temp;Humidity;BMP_temperature;BMP_pressure;BME280_temperature;BME280_humidity;BME280_pressure;Samples;Min_cycle;Max_cycle;Signal;HPM_P1;HPM_P2
2022/05/08 00:02:15;;;;;;;7.00;6.22;;;15.30;96.10;;;;;;5030310;28;20029;-81
2022/05/08 00:04:41;;;;;;;8.15;6.82;;;15.30;96.10;;;;;;5030629;28;20029;-81
2022/05/08 00:07:07;;;;;;;9.48;6.63;;;15.20;96.10;;;;;;5033166;28;20037;-81
2022/05/08 00:09:32;;;;;;;7.75;6.93;;;15.30;96.20;;;;;;5050177;28;20025;-82
2022/05/08 00:11:58;;;;;;;8.48;6.95;;;15.20;96.20;;;;;;5048506;28;20032;-80
2022/05/08 00:14:23;;;;;;;11.45;6.95;;;15.20;96.30;;;;;;5050326;28;20347;-81
2022/05/08 00:16:49;;;;;;;8.77;7.30;;;15.20;96.30;;;;;;5049500;28;20029;-80
2022/05/08 00:19:15;;;;;;;11.88;6.65;;;15.30;96.30;;;;;;5050000;28;20033;-81
2022/05/08 00:21:40;;;;;;;10.93;6.35;;;15.30;96.30;;;;;;5049952;28;20025;-79
2022/05/08 00:24:06;;;;;;;11.48;7.60;;;15.30;96.40;;;;;;5049865;28;20086;-82
2022/05/08 00:26:32;;;;;;;9.85;6.53;;;15.30;96.40;;;;;;5049413;28;20055;-80
2022/05/08 00:28:57;;;;;;;8.25;7.30;;;15.30;96.40;;;;;;5049872;28;20366;-82
2022/05/08 00:31:24;;;;;;;8.95;7.13;;;15.30;96.40;;;;;;5049434;28;20025;-81
2022/05/08 00:33:50;;;;;;;9.10;7.40;;;15.30;96.30;;;;;;5050858;28;20458;-81
2022/05/08 00:36:16;;;;;;;9.35;7.15;;;15.30;96.30;;;;;;5050937;28;20032;-82
2022/05/08 00:38:42;;;;;;;9.50;6.68;;;15.30;96.30;;;;;;5054454;28;20067;-82
2022/05/08 00:41:08;;;;;;;10.13;6.38;;;15.40;96.20;;;;;;5054155;28;20106;-81
2022/05/08 00:43:38;;;;;;;11.13;7.53;;;15.30;96.30;;;;;;5054229;28;20031;-81
2022/05/08 00:46:06;;;;;;;11.48;7.13;;;15.30;96.40;;;;;;5052944;28;20032;-80
2022/05/08 00:48:33;;;;;;;9.10;7.60;;;15.30;96.30;;;;;;5054333;28;20025;-80
2022/05/08 00:51:01;;;;;;;8.60;6.93;;;15.30;96.30;;;;;;5053456;28;20025;-82
2022/05/08 00:53:32;;;;;;;12.20;7.78;;;15.30;96.30;;;;;;5052196;28;20071;-79
2022/05/08 00:55:57;;;;;;;7.80;6.68;;;15.40;96.40;;;;;;5052871;28;20083;-82
2022/05/08 00:58:23;;;;;;;8.13;6.72;;;15.30;96.40;;;;;;5053551;28;20028;-80
2022/05/08 01:00:49;;;;;;;10.38;7.53;;;15.30;96.50;;;;;;5052108;28;20029;-80
2022/05/08 01:03:14;;;;;;;13.00;7.57;;;15.40;96.60;;;;;;5054083;28;20087;-80
2022/05/08 01:05:43;;;;;;;9.55;7.65;;;15.30;96.60;;;;;;5052707;28;20307;-79
2022/05/08 01:08:11;;;;;;;9.80;6.88;;;15.30;96.70;;;;;;5054299;28;20083;-80
2022/05/08 01:10:38;;;;;;;9.20;7.50;;;15.20;97.20;;;;;;5053042;28;20033;-82
2022/05/08 01:13:04;;;;;;;9.60;8.60;;;15.20;97.20;;;;;;5040647;28;20108;-79
2022/05/08 01:15:39;;;;;;;11.50;8.65;;;15.20;97.30;;;;;;5033536;28;20029;-81
2022/05/08 01:18:05;;;;;;;8.82;7.60;;;15.10;97.40;;;;;;5033870;28;20040;-80
2022/05/08 01:20:30;;;;;;;10.77;8.40;;;15.10;97.40;;;;;;5033995;28;20393;-80
2022/05/08 01:22:56;;;;;;;9.90;8.00;;;15.00;97.60;;;;;;5033564;28;20096;-81
2022/05/08 01:25:21;;;;;;;9.35;8.13;;;14.90;97.80;;;;;;5032569;28;20034;-81
2022/05/08 01:27:47;;;;;;;11.93;8.57;;;14.80;97.80;;;;;;5033446;28;20113;-79
2022/05/08 01:30:12;;;;;;;10.27;7.88;;;14.80;97.80;;;;;;5033259;28;20443;-80
2022/05/08 01:32:38;;;;;;;11.23;8.75;;;14.80;97.90;;;;;;5032479;28;20415;-81
2022/05/08 01:35:04;;;;;;;10.05;7.80;;;14.80;97.90;;;;;;5033815;28;20025;-82
2022/05/08 01:37:29;;;;;;;12.55;9.45;;;14.70;98.00;;;;;;5032853;28;20107;-80
2022/05/08 01:39:56;;;;;;;10.82;8.13;;;14.70;98.30;;;;;;5033502;28;20036;-82
2022/05/08 01:42:22;;;;;;;11.98;9.25;;;14.70;98.30;;;;;;5033341;28;20017;-81
2022/05/08 01:44:49;;;;;;;9.82;8.77;;;14.60;98.30;;;;;;5033107;28;20029;-82
2022/05/08 01:49:59;;;;;;;11.40;8.35;;;14.50;98.40;;;;;;5032886;28;20036;-81
2022/05/08 01:52:25;;;;;;;11.70;9.50;;;14.50;98.60;;;;;;5032623;28;20021;-79
2022/05/08 01:54:51;;;;;;;11.95;9.07;;;14.50;98.80;;;;;;5032639;28;20025;-80
2022/05/08 01:57:17;;;;;;;12.27;9.15;;;14.40;98.70;;;;;;5031748;28;20436;-81
2022/05/08 01:59:42;;;;;;;15.02;8.88;;;14.40;98.80;;;;;;5032657;28;20041;-81
2022/05/08 02:02:08;;;;;;;11.15;8.98;;;14.40;98.90;;;;;;5037641;28;20048;-80
2022/05/08 02:04:33;;;;;;;11.95;8.90;;;14.30;99.20;;;;;;5050846;28;20025;-80
2022/05/08 02:06:59;;;;;;;11.85;9.65;;;14.20;99.30;;;;;;5051598;28;20037;-79
2022/05/08 02:09:25;;;;;;;14.43;10.13;;;14.20;99.50;;;;;;5052340;28;20029;-81
2022/05/08 02:11:50;;;;;;;12.93;9.45;;;14.10;99.60;;;;;;5051761;28;20053;-83
2022/05/08 02:14:16;;;;;;;15.00;9.43;;;14.10;99.80;;;;;;5052045;28;20560;-79
2022/05/08 02:16:42;;;;;;;13.60;9.40;;;14.00;99.90;;;;;;5049545;28;20017;-81
2022/05/08 02:19:07;;;;;;;11.98;9.45;;;14.00;99.90;;;;;;5051858;28;20060;-80
2022/05/08 02:21:33;;;;;;;11.52;9.38;;;14.10;99.90;;;;;;5051581;28;20099;-81
2022/05/08 02:23:58;;;;;;;12.73;9.13;;;14.00;99.90;;;;;;5052397;28;20454;-81
2022/05/08 02:26:24;;;;;;;12.18;9.85;;;13.90;99.90;;;;;;5049842;28;20033;-80
2022/05/08 02:28:50;;;;;;;11.82;9.98;;;13.90;99.90;;;;;;5052232;28;20719;-81
2022/05/08 02:31:15;;;;;;;12.35;10.35;;;13.90;99.90;;;;;;5051078;28;20017;-82
2022/05/08 02:33:41;;;;;;;12.48;10.20;;;13.90;99.90;;;;;;5050521;28;20029;-84
2022/05/08 02:36:06;;;;;;;10.75;9.43;;;13.90;99.90;;;;;;5050945;28;20032;-81
2022/05/08 02:38:33;;;;;;;11.30;9.15;;;13.90;99.90;;;;;;5051182;28;20068;-81
2022/05/08 02:40:59;;;;;;;11.95;9.68;;;13.90;99.90;;;;;;5051209;28;20024;-80
2022/05/08 02:43:24;;;;;;;11.27;9.07;;;13.90;99.90;;;;;;5051261;28;20398;-81
2022/05/08 02:45:50;;;;;;;10.18;8.68;;;13.90;99.90;;;;;;5050881;28;20025;-81
2022/05/08 02:48:15;;;;;;;12.77;8.55;;;13.90;99.90;;;;;;5051398;28;20029;-80
2022/05/08 02:50:41;;;;;;;10.48;9.07;;;13.90;99.90;;;;;;5051585;28;20029;-80
2022/05/08 02:53:07;;;;;;;11.07;8.20;;;13.80;99.90;;;;;;5051449;28;20122;-80
2022/05/08 02:58:34;;;;;;;22.20;8.93;;;13.80;99.90;;;;;;5051754;28;20476;-80
2022/05/08 03:01:01;;;;;;;15.20;9.48;;;13.80;99.90;;;;;;5051380;28;20100;-81
2022/05/08 03:03:27;;;;;;;11.15;8.20;;;13.70;99.90;;;;;;5051711;28;20021;-82
2022/05/08 03:05:53;;;;;;;17.05;9.02;;;13.80;99.90;;;;;;5050695;28;20045;-79
2022/05/08 03:08:19;;;;;;;11.38;8.48;;;13.80;99.90;;;;;;5051632;28;20416;-80
2022/05/08 03:13:37;;;;;;;12.52;9.13;;;13.80;99.90;;;;;;5050846;28;20031;-82
2022/05/08 03:16:05;;;;;;;11.13;8.65;;;13.80;99.90;;;;;;5050034;28;20160;-80
2022/05/08 03:18:31;;;;;;;14.73;8.65;;;13.90;99.90;;;;;;5050796;28;20028;-81
2022/05/08 03:20:56;;;;;;;12.95;9.05;;;13.90;99.90;;;;;;5047038;28;20115;-81
2022/05/08 03:23:22;;;;;;;10.85;8.77;;;13.80;99.90;;;;;;5049283;28;20082;-80
2022/05/08 03:25:47;;;;;;;12.05;9.38;;;13.80;99.90;;;;;;5048848;28;20391;-80
2022/05/08 03:28:13;;;;;;;10.63;8.52;;;13.80;99.90;;;;;;5050524;28;20020;-80
2022/05/08 03:30:40;;;;;;;10.88;8.75;;;13.80;99.90;;;;;;5050502;28;20469;-80
2022/05/08 03:33:06;;;;;;;13.48;9.55;;;13.80;99.90;;;;;;5048604;28;20105;-79
2022/05/08 03:35:32;;;;;;;13.65;9.02;;;13.80;99.90;;;;;;5049695;28;20029;-79
2022/05/08 03:37:58;;;;;;;13.98;9.23;;;13.80;99.90;;;;;;5050252;28;20031;-80
2022/05/08 03:40:26;;;;;;;13.23;8.98;;;13.70;99.90;;;;;;5050268;28;20046;-80
2022/05/08 03:42:55;;;;;;;14.65;9.13;;;13.80;99.90;;;;;;5048720;28;20386;-81
2022/05/08 03:45:21;;;;;;;15.05;8.93;;;13.80;99.90;;;;;;5064696;28;20044;-79
2022/05/08 03:47:50;;;;;;;14.35;10.43;;;13.70;99.90;;;;;;5049963;28;20374;-80
2022/05/08 03:50:16;;;;;;;12.98;8.63;;;13.70;99.90;;;;;;5049890;28;20017;-81
2022/05/08 03:52:41;;;;;;;13.57;9.48;;;13.70;99.90;;;;;;5048457;28;20515;-79
2022/05/08 03:55:07;;;;;;;14.90;10.18;;;13.70;99.90;;;;;;5047522;28;20489;-81
2022/05/08 03:57:32;;;;;;;12.70;9.07;;;13.70;99.90;;;;;;5049610;28;20029;-80
2022/05/08 03:59:58;;;;;;;12.52;9.35;;;13.60;99.90;;;;;;5050184;28;20033;-79
2022/05/08 04:02:23;;;;;;;13.13;10.07;;;13.50;99.90;;;;;;5049737;28;20033;-81
2022/05/08 04:04:49;;;;;;;13.73;10.05;;;13.50;99.90;;;;;;5049818;28;20048;-81
2022/05/08 04:07:14;;;;;;;13.02;9.68;;;13.40;99.90;;;;;;5049123;28;20032;-79
2022/05/08 04:09:40;;;;;;;12.38;9.60;;;13.40;99.90;;;;;;5050100;28;20040;-80
2022/05/08 04:12:06;;;;;;;12.98;9.50;;;13.50;99.90;;;;;;5051105;28;20021;-80
2022/05/08 04:14:31;;;;;;;10.18;8.15;;;13.50;99.90;;;;;;5054469;28;20517;-80
2022/05/08 04:16:56;;;;;;;15.50;9.38;;;13.50;99.90;;;;;;5052257;28;20458;-81
2022/05/08 04:19:22;;;;;;;13.68;9.98;;;13.60;99.90;;;;;;5054096;28;20029;-78
2022/05/08 04:21:48;;;;;;;13.95;9.45;;;13.50;99.90;;;;;;5052404;28;20048;-80
2022/05/08 04:24:19;;;;;;;11.10;9.13;;;13.60;99.90;;;;;;5053793;28;20377;-81
2022/05/08 04:26:46;;;;;;;12.70;9.73;;;13.60;99.90;;;;;;5053578;28;20021;-80
2022/05/08 04:29:11;;;;;;;13.40;9.65;;;13.50;99.90;;;;;;5054080;28;20405;-82
2022/05/08 04:31:37;;;;;;;11.65;9.43;;;13.50;99.90;;;;;;5053659;28;20025;-79
2022/05/08 04:34:03;;;;;;;12.40;9.63;;;13.40;99.90;;;;;;5054157;28;20021;-80
2022/05/08 04:36:29;;;;;;;13.65;9.23;;;13.40;99.90;;;;;;5053075;28;20021;-79
2022/05/08 04:38:55;;;;;;;14.40;10.07;;;13.50;99.90;;;;;;5052410;28;20032;-81
2022/05/08 04:41:20;;;;;;;13.05;9.23;;;13.50;99.90;;;;;;5053222;28;20017;-80
2022/05/08 04:43:46;;;;;;;10.20;9.10;;;13.50;99.90;;;;;;5053753;28;20029;-81
2022/05/08 04:46:11;;;;;;;12.02;9.10;;;13.60;99.90;;;;;;5053312;28;20017;-80
2022/05/08 04:48:38;;;;;;;12.10;8.68;;;13.50;99.90;;;;;;5053545;28;20104;-81
2022/05/08 04:51:04;;;;;;;12.63;8.98;;;13.60;99.90;;;;;;5053329;28;20461;-79
2022/05/08 04:53:30;;;;;;;12.80;9.13;;;13.70;99.90;;;;;;5053461;28;20036;-80
2022/05/08 04:55:56;;;;;;;12.70;9.35;;;13.70;99.90;;;;;;5052857;28;20548;-81
2022/05/08 04:58:22;;;;;;;11.80;8.93;;;13.80;99.90;;;;;;5053435;28;20117;-80
2022/05/08 05:00:47;;;;;;;10.30;7.68;;;13.80;99.90;;;;;;5052011;28;20074;-82
2022/05/08 05:03:13;;;;;;;11.43;8.50;;;13.90;99.90;;;;;;5053393;28;20104;-82
2022/05/08 05:05:38;;;;;;;8.88;7.57;;;13.90;99.90;;;;;;5050905;28;20056;-81
2022/05/08 05:08:07;;;;;;;8.88;7.85;;;14.00;99.90;;;;;;5053644;28;20036;-81
2022/05/08 05:10:33;;;;;;;9.73;7.55;;;14.10;99.90;;;;;;5053260;28;20083;-80
2022/05/08 05:12:58;;;;;;;11.93;8.30;;;14.10;99.90;;;;;;5053324;28;20053;-81
2022/05/08 05:15:24;;;;;;;10.88;7.93;;;14.10;99.90;;;;;;5052098;28;20764;-81
2022/05/08 05:17:51;;;;;;;8.68;7.32;;;14.20;99.90;;;;;;5051794;28;20429;-82
2022/05/08 05:20:17;;;;;;;11.10;7.65;;;14.30;99.90;;;;;;5053034;28;20029;-82
2022/05/08 05:22:42;;;;;;;9.88;6.90;;;14.30;99.90;;;;;;5051186;28;20025;-81
2022/05/08 05:25:08;;;;;;;8.57;6.93;;;14.40;99.90;;;;;;5053007;28;20065;-80
2022/05/08 05:27:34;;;;;;;11.05;8.45;;;14.40;99.90;;;;;;5049862;28;20025;-81
2022/05/08 05:29:59;;;;;;;11.80;7.70;;;14.30;99.90;;;;;;5033123;28;20021;-81
2022/05/08 05:32:25;;;;;;;8.80;7.45;;;14.40;99.90;;;;;;5030987;28;20032;-82
2022/05/08 05:34:51;;;;;;;8.10;6.65;;;14.40;99.90;;;;;;5031665;28;20116;-81
2022/05/08 05:37:16;;;;;;;9.77;7.55;;;14.40;99.90;;;;;;5031860;28;20113;-82
2022/05/08 05:39:42;;;;;;;8.18;6.45;;;14.40;99.90;;;;;;5033461;28;20025;-83
2022/05/08 05:42:08;;;;;;;9.88;7.18;;;14.50;99.90;;;;;;5032523;28;20048;-80
2022/05/08 05:44:34;;;;;;;12.40;8.20;;;14.50;99.90;;;;;;5031529;28;20029;-82
2022/05/08 05:49:43;;;;;;;9.93;7.68;;;14.40;99.90;;;;;;5032408;28;20539;-84
2022/05/08 05:52:09;;;;;;;8.80;6.80;;;14.40;99.90;;;;;;5032550;28;20030;-82
2022/05/08 05:54:35;;;;;;;10.13;6.53;;;14.40;99.90;;;;;;5034973;28;20625;-83
2022/05/08 05:57:02;;;;;;;16.60;7.85;;;14.50;99.90;;;;;;5050503;28;20385;-81
2022/05/08 05:59:27;;;;;;;8.52;7.03;;;14.50;99.90;;;;;;5050836;28;20374;-81
2022/05/08 06:01:53;;;;;;;10.10;7.90;;;14.50;99.90;;;;;;5051952;28;20021;-81
2022/05/08 06:04:18;;;;;;;14.00;7.35;;;14.50;99.90;;;;;;5052092;28;20029;-82
2022/05/08 06:06:44;;;;;;;7.70;6.18;;;14.50;99.90;;;;;;5051306;28;20033;-81
2022/05/08 06:09:09;;;;;;;10.00;7.47;;;14.60;99.90;;;;;;5052218;28;20442;-80
2022/05/08 06:11:35;;;;;;;9.05;6.20;;;14.50;99.90;;;;;;5051669;28;20040;-82
2022/05/08 06:14:01;;;;;;;9.50;7.30;;;14.60;99.90;;;;;;5052342;28;20036;-83
2022/05/08 06:16:26;;;;;;;8.35;6.30;;;14.60;99.90;;;;;;5051467;28;20025;-80
2022/05/08 06:18:52;;;;;;;9.15;6.20;;;14.60;99.90;;;;;;5051951;28;20524;-81
2022/05/08 06:21:17;;;;;;;8.15;6.28;;;14.60;99.90;;;;;;5051616;28;20032;-82
2022/05/08 06:23:42;;;;;;;16.58;6.90;;;14.70;99.90;;;;;;5051927;28;20116;-82
2022/05/08 06:26:08;;;;;;;9.15;6.63;;;14.80;99.90;;;;;;5051181;28;20450;-81
2022/05/08 06:28:34;;;;;;;6.90;6.15;;;14.90;99.90;;;;;;5051958;28;20024;-81
2022/05/08 06:31:00;;;;;;;7.82;6.05;;;14.90;99.90;;;;;;5050380;28;20035;-80
2022/05/08 06:33:26;;;;;;;7.72;5.68;;;15.10;99.90;;;;;;5051592;28;20449;-81
2022/05/08 06:35:52;;;;;;;9.52;6.10;;;15.10;99.70;;;;;;5050348;28;20100;-81
2022/05/08 06:38:17;;;;;;;6.45;5.60;;;15.30;99.70;;;;;;5052062;28;20112;-81
2022/05/08 06:40:45;;;;;;;7.50;5.80;;;15.30;99.10;;;;;;5051942;28;20025;-80
2022/05/08 06:43:10;;;;;;;8.20;5.93;;;15.40;99.10;;;;;;5050552;28;20089;-80
2022/05/08 06:45:36;;;;;;;7.90;5.45;;;15.50;98.90;;;;;;5051760;28;20474;-80
2022/05/08 06:48:02;;;;;;;10.35;5.20;;;15.60;98.60;;;;;;5052311;28;20401;-82
2022/05/08 06:50:30;;;;;;;6.10;5.22;;;15.60;98.50;;;;;;5052172;28;20419;-80
2022/05/08 06:52:55;;;;;;;7.85;4.82;;;15.70;98.20;;;;;;5050037;28;20024;-82
2022/05/08 06:55:21;;;;;;;6.20;4.95;;;15.80;98.00;;;;;;5050756;28;20044;-80
2022/05/08 06:57:47;;;;;;;7.55;4.85;;;15.80;98.10;;;;;;5051465;28;20147;-80
2022/05/08 07:02:57;;;;;;;11.57;5.68;;;16.10;98.00;;;;;;5050903;28;20028;-81
2022/05/08 07:05:23;;;;;;;7.50;4.82;;;16.10;97.40;;;;;;5050076;28;20041;-83
2022/05/08 07:07:48;;;;;;;6.32;5.22;;;16.10;97.00;;;;;;5049984;28;20078;-82
2022/05/08 07:10:14;;;;;;;11.45;5.00;;;16.10;97.30;;;;;;5049721;28;20025;-81
2022/05/08 07:12:39;;;;;;;9.15;5.63;;;16.10;97.30;;;;;;5050640;28;20029;-83
2022/05/08 07:15:05;;;;;;;9.05;4.32;;;16.20;97.00;;;;;;5051163;28;20458;-83
2022/05/08 07:17:31;;;;;;;7.57;4.50;;;16.30;97.00;;;;;;5050272;28;20029;-83
2022/05/08 07:19:56;;;;;;;4.40;3.95;;;16.40;96.40;;;;;;5050940;28;20488;-81
2022/05/08 07:22:23;;;;;;;5.53;3.88;;;16.50;95.80;;;;;;5050053;28;20489;-82
2022/05/08 07:24:48;;;;;;;5.43;4.93;;;16.60;96.10;;;;;;5047980;28;20082;-81
2022/05/08 07:27:14;;;;;;;6.25;3.42;;;16.80;96.30;;;;;;5050198;28;20037;-82
2022/05/08 07:29:44;;;;;;;5.63;4.03;;;17.00;95.10;;;;;;5050943;28;20029;-79
2022/05/08 07:32:10;;;;;;;5.47;4.47;;;17.10;94.90;;;;;;5050922;28;20067;-82
2022/05/08 07:37:20;;;;;;;4.70;4.05;;;17.10;94.20;;;;;;5050490;28;20052;-82
2022/05/08 07:39:46;;;;;;;5.47;3.88;;;17.10;94.30;;;;;;5051086;28;20442;-81
2022/05/08 07:42:11;;;;;;;5.90;3.35;;;17.20;94.30;;;;;;5049970;28;20446;-81
2022/05/08 07:44:37;;;;;;;6.90;3.75;;;17.30;93.80;;;;;;5066233;28;20045;-80
2022/05/08 07:47:03;;;;;;;5.18;3.95;;;17.30;93.50;;;;;;5050363;28;20056;-81
2022/05/08 07:49:28;;;;;;;5.38;3.15;;;17.40;93.10;;;;;;5050291;28;20466;-81
2022/05/08 07:51:54;;;;;;;3.75;3.03;;;17.50;93.30;;;;;;5050886;28;20059;-80
2022/05/08 07:54:19;;;;;;;4.00;3.00;;;17.70;92.40;;;;;;5051409;28;20028;-83
2022/05/08 07:56:45;;;;;;;3.20;2.90;;;17.80;92.60;;;;;;5051126;28;20025;-84
2022/05/08 07:59:11;;;;;;;4.07;3.10;;;17.80;92.20;;;;;;5051929;28;20056;-83
2022/05/08 08:01:36;;;;;;;3.50;2.80;;;17.90;92.10;;;;;;5049704;28;20025;-83
2022/05/08 08:04:04;;;;;;;3.95;2.78;;;18.10;92.10;;;;;;5051260;28;20045;-82
2022/05/08 08:06:31;;;;;;;3.80;2.85;;;18.50;91.10;;;;;;5050007;28;20075;-82
2022/05/08 08:08:57;;;;;;;5.95;2.85;;;18.60;91.30;;;;;;5050752;28;20028;-83
2022/05/08 08:11:22;;;;;;;4.90;3.22;;;18.90;90.80;;;;;;5049997;28;20033;-82
2022/05/08 08:13:48;;;;;;;7.70;4.00;;;18.90;90.40;;;;;;5051336;28;20036;-83
2022/05/08 08:16:13;;;;;;;4.35;3.42;;;19.00;90.80;;;;;;5049146;28;20071;-83
2022/05/08 08:18:43;;;;;;;4.57;2.78;;;19.10;90.80;;;;;;5049949;28;20059;-82
2022/05/08 08:21:10;;;;;;;4.55;3.25;;;19.20;90.60;;;;;;5048941;28;20385;-84
2022/05/08 08:23:36;;;;;;;3.38;2.90;;;19.30;90.40;;;;;;5049482;28;20713;-83
2022/05/08 08:26:02;;;;;;;3.05;2.40;;;19.30;90.10;;;;;;5050470;28;20169;-84
2022/05/08 08:28:27;;;;;;;4.28;3.22;;;19.40;89.70;;;;;;5050151;28;20044;-81
2022/05/08 08:30:53;;;;;;;4.07;2.80;;;19.50;88.90;;;;;;5050042;28;20040;-82
2022/05/08 08:33:18;;;;;;;4.97;3.13;;;19.60;89.00;;;;;;5050187;28;20021;-82
2022/05/08 08:35:44;;;;;;;4.47;3.50;;;19.70;89.30;;;;;;5048855;28;20517;-82
2022/05/08 08:38:09;;;;;;;4.32;2.92;;;19.70;88.60;;;;;;5050783;28;20480;-82
2022/05/08 08:40:42;;;;;;;5.57;3.58;;;19.80;88.20;;;;;;5050729;28;20029;-82
2022/05/08 08:43:11;;;;;;;4.68;3.08;;;19.80;88.30;;;;;;5050007;28;20029;-82
2022/05/08 08:48:34;;;;;;;5.15;3.40;;;19.90;88.10;;;;;;5050661;28;20028;-81
2022/05/08 08:51:01;;;;;;;4.78;3.38;;;19.90;89.10;;;;;;5050012;28;20021;-84
2022/05/08 08:53:28;;;;;;;3.15;2.83;;;19.80;87.10;;;;;;5049287;28;20021;-82
2022/05/08 08:55:54;;;;;;;4.97;3.30;;;19.70;87.60;;;;;;5049963;28;20079;-83
2022/05/08 08:58:21;;;;;;;5.47;3.70;;;19.60;88.70;;;;;;5052835;28;20318;-82
2022/05/08 09:00:47;;;;;;;6.97;4.15;;;19.40;89.40;;;;;;5053620;28;20032;-83
2022/05/08 09:03:28;;;;;;;6.95;4.22;;;19.40;90.30;;;;;;5054342;28;20029;-80
2022/05/08 09:05:59;;;;;;;5.43;4.10;;;19.30;90.30;;;;;;5053653;28;20025;-83
2022/05/08 09:08:29;;;;;;;5.18;3.53;;;19.30;90.70;;;;;;5054009;28;20499;-83
2022/05/08 09:10:58;;;;;;;7.72;4.03;;;19.40;90.80;;;;;;5053997;28;20543;-82
2022/05/08 09:13:26;;;;;;;6.88;3.45;;;19.50;90.30;;;;;;5052446;28;20071;-83
2022/05/08 09:16:03;;;;;;;8.55;4.10;;;19.80;90.00;;;;;;5053332;28;20024;-84
2022/05/08 09:18:29;;;;;;;6.15;4.13;;;19.90;89.40;;;;;;5053655;28;20047;-80
2022/05/08 09:21:54;;;;;;;7.90;4.20;;;20.00;89.60;;;;;;5052718;28;20025;-83
2022/05/08 09:23:44;;;;;;;7.05;4.15;;;19.70;90.10;;;;;;5052975;28;20056;-83
2022/05/08 09:26:10;;;;;;;6.60;3.70;;;19.50;90.10;;;;;;5052485;28;20063;-83
2022/05/08 09:28:42;;;;;;;9.88;4.18;;;19.50;89.70;;;;;;5053739;28;20025;-81
2022/05/08 09:31:10;;;;;;;6.55;3.72;;;19.50;90.00;;;;;;5053336;28;20343;-82
2022/05/08 09:33:41;;;;;;;7.80;4.10;;;19.50;89.70;;;;;;5050446;28;20021;-83
2022/05/08 09:36:09;;;;;;;5.90;3.67;;;19.40;89.00;;;;;;5031507;28;20451;-82
2022/05/08 09:38:52;;;;;;;7.75;4.32;;;19.20;90.00;;;;;;5031926;28;20482;-82
2022/05/08 09:41:29;;;;;;;4.82;3.63;;;19.20;90.40;;;;;;5031703;28;20116;-81
2022/05/08 09:44:15;;;;;;;7.13;3.53;;;19.20;89.50;;;;;;5033067;28;20044;-83
2022/05/08 09:46:45;;;;;;;6.25;3.40;;;19.30;89.90;;;;;;5032583;28;20033;-82
2022/05/08 09:49:18;;;;;;;6.28;3.78;;;19.30;90.40;;;;;;5051337;28;20025;-82
2022/05/08 09:51:44;;;;;;;7.05;3.65;;;19.30;90.00;;;;;;5053130;28;20013;-82
2022/05/08 09:54:11;;;;;;;6.38;3.90;;;19.40;90.00;;;;;;5053142;28;20041;-81
2022/05/08 09:56:36;;;;;;;6.18;3.10;;;19.50;89.60;;;;;;5052280;28;20103;-81
2022/05/08 09:59:07;;;;;;;5.55;3.22;;;19.60;88.60;;;;;;5052756;28;20104;-81
2022/05/08 10:01:33;;;;;;;5.25;2.95;;;19.70;89.00;;;;;;5052810;28;20363;-81
2022/05/08 10:03:58;;;;;;;6.30;3.55;;;19.70;90.10;;;;;;5052213;28;20110;-81
2022/05/08 10:06:24;;;;;;;7.35;3.85;;;19.90;89.80;;;;;;5051409;28;20517;-82
2022/05/08 10:08:51;;;;;;;7.13;3.70;;;20.10;89.00;;;;;;5050723;28;20025;-81
2022/05/08 10:14:07;;;;;;;8.40;4.00;;;20.20;88.00;;;;;;5052493;28;20132;-82
2022/05/08 10:16:46;;;;;;;5.38;3.38;;;20.20;87.70;;;;;;5051640;28;20418;-82
2022/05/08 10:19:17;;;;;;;7.25;3.58;;;20.30;89.00;;;;;;5050860;28;20485;-81
2022/05/08 10:22:03;;;;;;;4.50;3.50;;;20.50;87.10;;;;;;5052018;28;20021;-80
2022/05/08 10:24:31;;;;;;;4.15;3.03;;;20.60;86.50;;;;;;5051975;28;20021;-82
2022/05/08 10:27:11;;;;;;;5.03;3.67;;;20.80;86.30;;;;;;5051492;28;20071;-81
2022/05/08 10:29:50;;;;;;;8.60;3.65;;;21.00;85.10;;;;;;5051679;28;20025;-82
2022/05/08 10:32:31;;;;;;;4.57;3.17;;;21.20;85.60;;;;;;5051480;28;20028;-82
2022/05/08 10:35:15;;;;;;;5.00;3.17;;;21.20;83.90;;;;;;5052191;28;20107;-82
2022/05/08 10:38:01;;;;;;;4.97;2.53;;;21.30;83.20;;;;;;5051479;28;20017;-82
2022/05/08 10:40:27;;;;;;;4.57;2.97;;;21.20;83.00;;;;;;5044235;28;20056;-81
2022/05/08 10:43:01;;;;;;;4.95;3.38;;;21.30;82.30;;;;;;5051082;28;20595;-82
2022/05/08 10:45:33;;;;;;;3.28;2.63;;;21.20;82.50;;;;;;5050969;28;20540;-82
2022/05/08 10:48:12;;;;;;;3.07;2.70;;;21.30;83.80;;;;;;5051840;28;20021;-82
2022/05/08 10:50:49;;;;;;;5.22;2.97;;;21.30;80.40;;;;;;5051507;28;20657;-82
2022/05/08 10:53:30;;;;;;;4.10;2.80;;;21.30;81.10;;;;;;5051467;28;20037;-81
2022/05/08 10:56:07;;;;;;;3.42;2.33;;;21.00;81.40;;;;;;5050839;28;20040;-83
2022/05/08 10:58:41;;;;;;;4.35;2.78;;;20.90;83.00;;;;;;5051126;28;20077;-83
2022/05/08 11:01:09;;;;;;;3.30;2.05;;;21.00;84.40;;;;;;5050683;28;20073;-82
2022/05/08 11:03:35;;;;;;;3.08;2.30;;;21.20;81.00;;;;;;5050824;28;20084;-81
2022/05/08 11:06:02;;;;;;;2.83;1.90;;;21.50;79.60;;;;;;5050368;28;20335;-81
2022/05/08 11:08:29;;;;;;;3.20;2.10;;;21.60;79.30;;;;;;5049339;28;20493;-81
2022/05/08 11:11:02;;;;;;;4.35;2.30;;;21.70;80.80;;;;;;5050637;28;20492;-82
2022/05/08 11:13:37;;;;;;;3.63;1.73;;;21.70;78.30;;;;;;5050882;28;20487;-82
2022/05/08 11:16:03;;;;;;;4.18;1.63;;;21.90;78.90;;;;;;5048860;28;20052;-82
2022/05/08 11:18:28;;;;;;;3.75;1.90;;;22.10;76.90;;;;;;5050520;28;20621;-82
2022/05/08 11:21:02;;;;;;;3.03;1.90;;;22.20;77.60;;;;;;5048772;28;20025;-82
2022/05/08 11:23:36;;;;;;;5.47;2.25;;;22.40;77.20;;;;;;5050770;28;20082;-82
2022/05/08 11:26:07;;;;;;;4.88;2.50;;;22.40;76.60;;;;;;5048605;28;20071;-82
2022/05/08 11:28:34;;;;;;;4.20;2.40;;;22.50;79.00;;;;;;5050633;28;20032;-82
2022/05/08 11:31:10;;;;;;;7.38;2.72;;;22.60;75.60;;;;;;5049186;28;20465;-82
2022/05/08 11:36:26;;;;;;;8.20;2.53;;;22.50;76.90;;;;;;5049661;28;20051;-83
2022/05/08 11:38:57;;;;;;;5.18;2.40;;;22.60;77.10;;;;;;5050187;28;20434;-82
2022/05/08 11:41:27;;;;;;;4.80;2.58;;;22.70;78.00;;;;;;5043765;28;20014;-82
2022/05/08 11:43:54;;;;;;;4.38;3.15;;;22.80;78.90;;;;;;5030494;28;20032;-82
2022/05/08 11:46:31;;;;;;;6.38;2.72;;;23.00;76.30;;;;;;5029680;28;20621;-82
2022/05/08 11:48:56;;;;;;;7.15;2.95;;;23.40;77.20;;;;;;5030561;28;20033;-81
2022/05/08 11:51:22;;;;;;;5.22;2.30;;;23.60;76.00;;;;;;5030117;28;20036;-83
2022/05/08 11:53:52;;;;;;;6.88;2.90;;;23.90;74.30;;;;;;5030196;28;20030;-85
2022/05/08 11:56:32;;;;;;;7.10;2.47;;;24.00;73.20;;;;;;5029545;28;20029;-82
2022/05/08 11:59:06;;;;;;;5.88;2.78;;;24.20;73.70;;;;;;5030251;28;20104;-82
2022/05/08 12:01:35;;;;;;;4.50;2.67;;;24.40;72.00;;;;;;5030151;28;20359;-82
2022/05/08 12:04:24;;;;;;;8.25;3.10;;;24.40;72.70;;;;;;5030154;28;20029;-83
2022/05/08 12:07:05;;;;;;;4.35;2.45;;;24.20;70.10;;;;;;5029651;28;20365;-81
2022/05/08 12:10:00;;;;;;;4.10;2.78;;;23.80;71.40;;;;;;5030119;28;20030;-81
2022/05/08 12:12:35;;;;;;;6.03;2.03;;;23.60;71.70;;;;;;5024779;28;20041;-81
2022/05/08 12:15:07;;;;;;;6.53;2.80;;;23.50;74.70;;;;;;5028602;28;20473;-81
2022/05/08 12:17:42;;;;;;;4.57;2.20;;;23.60;74.00;;;;;;5029758;28;20053;-81
2022/05/08 12:20:13;;;;;;;5.55;2.08;;;23.80;75.50;;;;;;5030167;28;20264;-81
2022/05/08 12:22:39;;;;;;;6.95;2.60;;;23.80;70.90;;;;;;5029706;28;20029;-81
2022/05/08 12:25:06;;;;;;;4.53;2.25;;;23.60;71.40;;;;;;5029839;28;20116;-81
2022/05/08 12:27:33;;;;;;;4.93;2.83;;;23.40;72.30;;;;;;5029557;28;20480;-82
2022/05/08 12:29:59;;;;;;;8.63;2.40;;;23.20;72.00;;;;;;5030108;28;20516;-81
2022/05/08 12:32:25;;;;;;;4.30;2.65;;;23.00;72.30;;;;;;5029296;28;20096;-81
2022/05/08 12:34:53;;;;;;;8.45;2.38;;;22.90;74.00;;;;;;5032887;28;20029;-81
2022/05/08 12:37:19;;;;;;;4.85;2.25;;;22.90;72.60;;;;;;5032895;28;20022;-81
2022/05/08 12:39:45;;;;;;;4.00;2.25;;;22.70;73.70;;;;;;5033923;28;20516;-81
2022/05/08 12:42:11;;;;;;;7.07;2.30;;;22.60;73.00;;;;;;5033291;28;20108;-81
2022/05/08 12:44:38;;;;;;;5.55;2.35;;;22.60;73.10;;;;;;5033915;28;20041;-81
2022/05/08 12:47:08;;;;;;;6.15;2.55;;;22.70;73.40;;;;;;5032108;28;20033;-81
2022/05/08 12:49:34;;;;;;;4.88;2.05;;;22.90;73.60;;;;;;5032729;28;20034;-80
2022/05/08 12:52:01;;;;;;;5.53;2.47;;;23.20;72.00;;;;;;5032389;28;20022;-82
2022/05/08 12:54:26;;;;;;;5.47;2.00;;;23.40;72.10;;;;;;5033657;28;20040;-81
2022/05/08 12:56:52;;;;;;;6.90;2.42;;;23.50;71.30;;;;;;5033069;28;20040;-81
2022/05/08 13:02:02;;;;;;;3.15;1.88;;;23.40;71.30;;;;;;5033577;28;20098;-81
2022/05/08 13:04:27;;;;;;;4.85;2.28;;;23.40;72.10;;;;;;5033226;28;20458;-81
2022/05/08 13:06:53;;;;;;;7.28;2.55;;;23.20;71.70;;;;;;5032497;28;20025;-81
2022/05/08 13:09:19;;;;;;;5.13;2.17;;;23.10;71.60;;;;;;5033148;28;20040;-81
2022/05/08 13:11:45;;;;;;;5.82;2.05;;;22.90;72.60;;;;;;5031929;28;20076;-81
2022/05/08 13:14:11;;;;;;;4.25;2.20;;;22.70;72.70;;;;;;5033527;28;20061;-81